sensor_id;sensor_type;location;lat;lon;timestamp;pressure;altitude;pressure_sealevel;temperature;humidity
18985;BME280;9626;52.552;13.436;2023-06-22T00:02:17;101288.63;;;20.73;100.00
18985;BME280;9626;52.552;13.436;2023-06-22T00:04:44;101294.88;;;20.73;100.00
18985;BME280;9626;52.552;13.436;2023-06-22T00:07:10;101296.75;;;20.89;100.00
18985;BME280;9626;52.552;13.436;2023-06-22T00:09:36;101292.97;;;20.75;100.00
18985;BME280;9626;52.552;13.436;2023-06-22T00:12:02;101291.50;;;20.70;100.00
18985;BME280;9626;52.552;13.436;2023-06-22T00:14:30;101298.34;;;20.58;100.00
18985;BME280;9626;52.552;13.436;2023-06-22T00:16:56;101296.13;;;20.49;100.00
18985;BME280;9626;52.552;13.436;2023-06-22T00:19:23;101302.88;;;20.40;100.00
18985;BME280;9626;52.552;13.436;2023-06-22T00:21:52;101303.97;;;20.36;100.00
18985;BME280;9626;52.552;13.436;2023-06-22T00:24:21;101308.63;;;20.50;100.00
18985;BME280;9626;52.552;13.436;2023-06-22T00:26:48;101313.06;;;20.51;100.00
18985;BME280;9626;52.552;13.436;2023-06-22T00:29:14;101316.94;;;20.45;100.00
18985;BME280;9626;52.552;13.436;2023-06-22T00:31:40;101322.78;;;20.36;100.00
18985;BME280;9626;52.552;13.436;2023-06-22T00:34:06;101320.22;;;20.33;100.00
18985;BME280;9626;52.552;13.436;2023-06-22T00:36:35;101317.06;;;20.24;100.00
18985;BME280;9626;52.552;13.436;2023-06-22T00:39:02;101310.09;;;20.20;100.00
18985;BME280;9626;52.552;13.436;2023-06-22T00:41:28;101317.22;;;20.21;100.00
18985;BME280;9626;52.552;13.436;2023-06-22T00:43:54;101313.91;;;20.16;100.00
18985;BME280;9626;52.552;13.436;2023-06-22T00:46:21;101324.56;;;20.18;100.00
18985;BME280;9626;52.552;13.436;2023-06-22T00:48:50;101316.38;;;20.38;100.00
18985;BME280;9626;52.552;13.436;2023-06-22T00:51:17;101324.03;;;20.29;100.00
18985;BME280;9626;52.552;13.436;2023-06-22T00:53:43;101324.44;;;20.21;100.00
18985;BME280;9626;52.552;13.436;2023-06-22T00:56:10;101326.72;;;20.29;100.00
18985;BME280;9626;52.552;13.436;2023-06-22T00:58:38;101320.84;;;20.20;100.00
18985;BME280;9626;52.552;13.436;2023-06-22T01:01:07;101323.06;;;20.12;100.00
18985;BME280;9626;52.552;13.436;2023-06-22T01:03:33;101326.72;;;20.11;100.00
18985;BME280;9626;52.552;13.436;2023-06-22T01:06:08;101330.78;;;20.01;100.00
18985;BME280;9626;52.552;13.436;2023-06-22T01:09:02;101330.38;;;19.91;100.00
18985;BME280;9626;52.552;13.436;2023-06-22T01:11:38;101327.84;;;19.88;100.00
18985;BME280;9626;52.552;13.436;2023-06-22T01:14:23;101329.19;;;19.97;100.00
18985;BME280;9626;52.552;13.436;2023-06-22T01:16:51;101329.38;;;19.93;100.00
18985;BME280;9626;52.552;13.436;2023-06-22T01:19:39;101326.75;;;19.92;100.00
18985;BME280;9626;52.552;13.436;2023-06-22T01:22:10;101341.22;;;19.89;100.00
18985;BME280;9626;52.552;13.436;2023-06-22T01:30:07;101330.66;;;19.85;100.00
18985;BME280;9626;52.552;13.436;2023-06-22T01:32:37;101328.88;;;19.85;100.00
18985;BME280;9626;52.552;13.436;2023-06-22T01:35:06;101342.53;;;19.79;100.00
18985;BME280;9626;52.552;13.436;2023-06-22T01:37:34;101339.34;;;19.71;100.00
18985;BME280;9626;52.552;13.436;2023-06-22T01:40:02;101341.78;;;19.77;100.00
18985;BME280;9626;52.552;13.436;2023-06-22T01:42:31;101344.34;;;19.80;100.00
18985;BME280;9626;52.552;13.436;2023-06-22T01:44:59;101349.31;;;19.69;100.00
18985;BME280;9626;52.552;13.436;2023-06-22T01:47:26;101349.94;;;19.55;100.00
18985;BME280;9626;52.552;13.436;2023-06-22T01:49:53;101352.00;;;19.50;100.00
18985;BME280;9626;52.552;13.436;2023-06-22T01:52:20;101353.72;;;19.70;100.00
18985;BME280;9626;52.552;13.436;2023-06-22T01:54:47;101357.81;;;19.79;100.00
18985;BME280;9626;52.552;13.436;2023-06-22T01:57:14;101356.28;;;19.73;100.00
18985;BME280;9626;52.552;13.436;2023-06-22T02:02:21;101353.53;;;19.74;100.00
18985;BME280;9626;52.552;13.436;2023-06-22T02:04:59;101352.13;;;20.04;100.00
18985;BME280;9626;52.552;13.436;2023-06-22T02:07:37;101353.94;;;20.22;100.00
18985;BME280;9626;52.552;13.436;2023-06-22T02:10:06;101355.13;;;19.98;100.00
18985;BME280;9626;52.552;13.436;2023-06-22T02:12:34;101352.56;;;19.75;100.00
18985;BME280;9626;52.552;13.436;2023-06-22T02:15:01;101350.22;;;19.88;100.00
18985;BME280;9626;52.552;13.436;2023-06-22T02:17:28;101360.06;;;19.69;100.00
18985;BME280;9626;52.552;13.436;2023-06-22T02:19:58;101349.88;;;19.56;100.00
18985;BME280;9626;52.552;13.436;2023-06-22T02:22:25;101352.06;;;19.48;100.00
18985;BME280;9626;52.552;13.436;2023-06-22T02:24:51;101364.31;;;19.35;100.00
18985;BME280;9626;52.552;13.436;2023-06-22T02:27:17;101368.69;;;19.37;100.00
18985;BME280;9626;52.552;13.436;2023-06-22T02:29:43;101363.50;;;19.33;100.00
18985;BME280;9626;52.552;13.436;2023-06-22T02:32:09;101370.47;;;19.37;100.00
18985;BME280;9626;52.552;13.436;2023-06-22T02:34:36;101374.47;;;19.28;100.00
18985;BME280;9626;52.552;13.436;2023-06-22T02:37:02;101377.22;;;19.27;100.00
18985;BME280;9626;52.552;13.436;2023-06-22T02:39:28;101378.16;;;19.25;100.00
18985;BME280;9626;52.552;13.436;2023-06-22T02:41:54;101378.59;;;19.35;100.00
18985;BME280;9626;52.552;13.436;2023-06-22T02:44:20;101376.53;;;19.61;100.00
18985;BME280;9626;52.552;13.436;2023-06-22T02:46:47;101376.81;;;19.74;100.00
18985;BME280;9626;52.552;13.436;2023-06-22T02:49:13;101375.47;;;19.84;100.00
18985;BME280;9626;52.552;13.436;2023-06-22T02:51:45;101370.81;;;19.69;100.00
18985;BME280;9626;52.552;13.436;2023-06-22T02:54:12;101371.44;;;19.74;100.00
18985;BME280;9626;52.552;13.436;2023-06-22T02:56:38;101378.75;;;19.91;100.00
18985;BME280;9626;52.552;13.436;2023-06-22T02:59:06;101377.22;;;20.04;100.00
18985;BME280;9626;52.552;13.436;2023-06-22T03:01:32;101376.81;;;20.12;100.00
18985;BME280;9626;52.552;13.436;2023-06-22T03:04:11;101371.19;;;19.99;100.00
18985;BME280;9626;52.552;13.436;2023-06-22T03:06:37;101371.25;;;19.98;100.00
18985;BME280;9626;52.552;13.436;2023-06-22T03:09:06;101367.25;;;19.87;100.00
18985;BME280;9626;52.552;13.436;2023-06-22T03:11:34;101369.94;;;19.87;100.00
18985;BME280;9626;52.552;13.436;2023-06-22T03:14:01;101377.72;;;19.93;100.00
18985;BME280;9626;52.552;13.436;2023-06-22T03:16:27;101369.41;;;19.79;100.00
18985;BME280;9626;52.552;13.436;2023-06-22T03:18:54;101369.56;;;19.76;100.00
18985;BME280;9626;52.552;13.436;2023-06-22T03:21:22;101370.00;;;19.67;100.00
18985;BME280;9626;52.552;13.436;2023-06-22T03:23:48;101369.72;;;19.73;100.00
18985;BME280;9626;52.552;13.436;2023-06-22T03:26:18;101368.63;;;19.77;100.00
18985;BME280;9626;52.552;13.436;2023-06-22T03:28:44;101377.34;;;19.82;100.00
18985;BME280;9626;52.552;13.436;2023-06-22T03:31:10;101368.91;;;19.71;100.00
18985;BME280;9626;52.552;13.436;2023-06-22T03:33:36;101367.47;;;19.64;100.00
18985;BME280;9626;52.552;13.436;2023-06-22T03:36:02;101361.50;;;19.76;100.00
18985;BME280;9626;52.552;13.436;2023-06-22T03:38:28;101375.25;;;19.89;100.00
18985;BME280;9626;52.552;13.436;2023-06-22T03:40:54;101375.09;;;20.11;100.00
18985;BME280;9626;52.552;13.436;2023-06-22T03:43:20;101374.78;;;20.17;100.00
18985;BME280;9626;52.552;13.436;2023-06-22T03:45:46;101382.94;;;20.16;100.00
18985;BME280;9626;52.552;13.436;2023-06-22T03:48:13;101375.09;;;20.11;100.00
18985;BME280;9626;52.552;13.436;2023-06-22T03:50:39;101371.91;;;20.03;100.00
18985;BME280;9626;52.552;13.436;2023-06-22T03:53:05;101371.03;;;20.02;100.00
18985;BME280;9626;52.552;13.436;2023-06-22T03:55:31;101363.03;;;20.01;100.00
18985;BME280;9626;52.552;13.436;2023-06-22T03:57:57;101362.31;;;19.97;100.00
18985;BME280;9626;52.552;13.436;2023-06-22T04:00:23;101362.53;;;19.92;100.00
18985;BME280;9626;52.552;13.436;2023-06-22T04:02:49;101363.31;;;19.75;100.00
18985;BME280;9626;52.552;13.436;2023-06-22T04:05:15;101362.97;;;19.64;100.00
18985;BME280;9626;52.552;13.436;2023-06-22T04:07:44;101373.94;;;19.59;100.00
18985;BME280;9626;52.552;13.436;2023-06-22T04:10:10;101372.34;;;19.74;100.00
18985;BME280;9626;52.552;13.436;2023-06-22T04:12:36;101381.06;;;19.80;100.00
18985;BME280;9626;52.552;13.436;2023-06-22T04:15:02;101370.50;;;19.75;100.00
18985;BME280;9626;52.552;13.436;2023-06-22T04:17:28;101376.84;;;19.93;100.00
18985;BME280;9626;52.552;13.436;2023-06-22T04:19:54;101376.72;;;19.96;100.00
18985;BME280;9626;52.552;13.436;2023-06-22T04:22:20;101370.97;;;19.85;100.00
18985;BME280;9626;52.552;13.436;2023-06-22T04:24:46;101383.38;;;19.87;100.00
18985;BME280;9626;52.552;13.436;2023-06-22T04:27:12;101384.19;;;19.89;100.00
18985;BME280;9626;52.552;13.436;2023-06-22T04:29:38;101390.16;;;19.96;100.00
18985;BME280;9626;52.552;13.436;2023-06-22T04:32:09;101383.97;;;19.94;100.00
18985;BME280;9626;52.552;13.436;2023-06-22T04:34:38;101393.97;;;19.90;100.00
18985;BME280;9626;52.552;13.436;2023-06-22T04:37:04;101396.75;;;19.89;100.00
18985;BME280;9626;52.552;13.436;2023-06-22T04:39:30;101398.81;;;19.84;100.00
18985;BME280;9626;52.552;13.436;2023-06-22T04:41:57;101397.56;;;19.91;100.00
18985;BME280;9626;52.552;13.436;2023-06-22T04:44:26;101402.69;;;19.96;100.00
18985;BME280;9626;52.552;13.436;2023-06-22T04:46:55;101412.28;;;20.01;100.00
18985;BME280;9626;52.552;13.436;2023-06-22T04:49:27;101405.03;;;20.03;100.00
18985;BME280;9626;52.552;13.436;2023-06-22T04:52:01;101405.88;;;20.04;100.00
18985;BME280;9626;52.552;13.436;2023-06-22T04:54:27;101405.97;;;20.02;100.00
18985;BME280;9626;52.552;13.436;2023-06-22T04:56:53;101402.50;;;20.00;100.00
18985;BME280;9626;52.552;13.436;2023-06-22T04:59:23;101402.09;;;20.08;100.00
18985;BME280;9626;52.552;13.436;2023-06-22T05:01:55;101414.31;;;20.15;100.00
18985;BME280;9626;52.552;13.436;2023-06-22T05:04:22;101409.22;;;20.28;100.00
18985;BME280;9626;52.552;13.436;2023-06-22T05:06:52;101407.00;;;20.36;100.00
18985;BME280;9626;52.552;13.436;2023-06-22T05:09:18;101402.50;;;20.37;100.00
18985;BME280;9626;52.552;13.436;2023-06-22T05:11:45;101402.19;;;20.43;100.00
18985;BME280;9626;52.552;13.436;2023-06-22T05:14:12;101400.72;;;20.55;100.00
18985;BME280;9626;52.552;13.436;2023-06-22T05:16:38;101405.28;;;20.72;100.00
18985;BME280;9626;52.552;13.436;2023-06-22T05:19:05;101404.63;;;20.84;100.00
18985;BME280;9626;52.552;13.436;2023-06-22T05:21:31;101405.59;;;20.83;100.00
18985;BME280;9626;52.552;13.436;2023-06-22T05:23:57;101407.31;;;20.84;100.00
18985;BME280;9626;52.552;13.436;2023-06-22T05:26:26;101405.75;;;20.80;100.00
18985;BME280;9626;52.552;13.436;2023-06-22T05:28:53;101407.25;;;20.86;100.00
18985;BME280;9626;52.552;13.436;2023-06-22T05:31:19;101412.00;;;20.98;100.00
18985;BME280;9626;52.552;13.436;2023-06-22T05:33:46;101414.94;;;21.11;100.00
18985;BME280;9626;52.552;13.436;2023-06-22T05:36:13;101414.38;;;21.04;100.00
18985;BME280;9626;52.552;13.436;2023-06-22T05:38:40;101415.09;;;21.08;100.00
18985;BME280;9626;52.552;13.436;2023-06-22T05:41:07;101411.75;;;21.20;100.00
18985;BME280;9626;52.552;13.436;2023-06-22T05:43:34;101401.44;;;21.28;100.00
18985;BME280;9626;52.552;13.436;2023-06-22T05:46:01;101411.09;;;21.33;100.00
18985;BME280;9626;52.552;13.436;2023-06-22T05:48:27;101411.31;;;21.28;100.00
18985;BME280;9626;52.552;13.436;2023-06-22T05:50:54;101421.78;;;21.34;100.00
18985;BME280;9626;52.552;13.436;2023-06-22T05:53:20;101414.41;;;21.38;100.00
18985;BME280;9626;52.552;13.436;2023-06-22T05:55:46;101419.00;;;21.36;100.00
18985;BME280;9626;52.552;13.436;2023-06-22T05:58:12;101435.00;;;21.39;100.00
18985;BME280;9626;52.552;13.436;2023-06-22T06:00:40;101443.00;;;21.40;100.00
18985;BME280;9626;52.552;13.436;2023-06-22T06:03:10;101435.72;;;21.42;100.00
18985;BME280;9626;52.552;13.436;2023-06-22T06:05:37;101433.72;;;21.46;100.00
18985;BME280;9626;52.552;13.436;2023-06-22T06:08:05;101437.84;;;21.53;100.00
18985;BME280;9626;52.552;13.436;2023-06-22T06:10:32;101433.56;;;21.49;100.00
18985;BME280;9626;52.552;13.436;2023-06-22T06:12:59;101437.53;;;21.42;100.00
18985;BME280;9626;52.552;13.436;2023-06-22T06:15:28;101436.66;;;21.41;100.00
18985;BME280;9626;52.552;13.436;2023-06-22T06:17:54;101434.75;;;21.43;100.00
18985;BME280;9626;52.552;13.436;2023-06-22T06:20:22;101427.22;;;21.50;100.00
18985;BME280;9626;52.552;13.436;2023-06-22T06:22:48;101429.69;;;21.55;100.00
18985;BME280;9626;52.552;13.436;2023-06-22T06:25:15;101430.41;;;21.58;100.00
18985;BME280;9626;52.552;13.436;2023-06-22T06:27:48;101423.97;;;21.61;100.00
18985;BME280;9626;52.552;13.436;2023-06-22T06:30:15;101414.78;;;21.65;100.00
18985;BME280;9626;52.552;13.436;2023-06-22T06:32:42;101420.66;;;21.72;100.00
18985;BME280;9626;52.552;13.436;2023-06-22T06:35:09;101421.75;;;21.85;100.00
18985;BME280;9626;52.552;13.436;2023-06-22T06:37:36;101420.53;;;21.91;100.00
18985;BME280;9626;52.552;13.436;2023-06-22T06:40:04;101431.91;;;21.96;100.00
18985;BME280;9626;52.552;13.436;2023-06-22T06:42:47;101439.31;;;22.08;99.23
18985;BME280;9626;52.552;13.436;2023-06-22T06:45:20;101436.00;;;22.19;97.49
18985;BME280;9626;52.552;13.436;2023-06-22T06:47:49;101440.88;;;22.28;96.32
18985;BME280;9626;52.552;13.436;2023-06-22T06:50:16;101442.16;;;22.39;97.30
18985;BME280;9626;52.552;13.436;2023-06-22T06:52:42;101440.22;;;22.41;95.81
18985;BME280;9626;52.552;13.436;2023-06-22T06:55:09;101428.72;;;22.53;96.35
18985;BME280;9626;52.552;13.436;2023-06-22T06:57:40;101428.91;;;22.50;93.46
18985;BME280;9626;52.552;13.436;2023-06-22T07:00:07;101426.97;;;22.52;89.56
18985;BME280;9626;52.552;13.436;2023-06-22T07:02:39;101423.13;;;22.56;88.89
18985;BME280;9626;52.552;13.436;2023-06-22T07:05:06;101420.88;;;22.65;86.52
18985;BME280;9626;52.552;13.436;2023-06-22T07:07:32;101422.47;;;22.83;88.07
18985;BME280;9626;52.552;13.436;2023-06-22T07:09:58;101420.75;;;22.96;87.88
18985;BME280;9626;52.552;13.436;2023-06-22T07:12:25;101416.88;;;23.17;86.59
18985;BME280;9626;52.552;13.436;2023-06-22T07:14:52;101403.63;;;23.12;83.89
18985;BME280;9626;52.552;13.436;2023-06-22T07:17:18;101402.22;;;23.21;81.06
18985;BME280;9626;52.552;13.436;2023-06-22T07:19:44;101404.66;;;23.09;80.71
18985;BME280;9626;52.552;13.436;2023-06-22T07:22:10;101398.94;;;23.16;81.44
18985;BME280;9626;52.552;13.436;2023-06-22T07:24:36;101396.16;;;23.32;80.20
18985;BME280;9626;52.552;13.436;2023-06-22T07:27:03;101396.53;;;23.54;77.74
18985;BME280;9626;52.552;13.436;2023-06-22T07:29:31;101389.88;;;23.60;72.89
18985;BME280;9626;52.552;13.436;2023-06-22T07:31:57;101385.94;;;23.66;75.59
18985;BME280;9626;52.552;13.436;2023-06-22T07:34:23;101391.13;;;23.69;74.66
18985;BME280;9626;52.552;13.436;2023-06-22T07:36:50;101386.09;;;23.77;73.33
18985;BME280;9626;52.552;13.436;2023-06-22T07:39:16;101383.59;;;23.59;69.91
18985;BME280;9626;52.552;13.436;2023-06-22T07:41:42;101388.63;;;23.51;70.88
18985;BME280;9626;52.552;13.436;2023-06-22T07:44:08;101388.63;;;23.66;71.39
18985;BME280;9626;52.552;13.436;2023-06-22T07:46:34;101383.41;;;23.77;67.07
18985;BME280;9626;52.552;13.436;2023-06-22T07:49:00;101389.47;;;23.80;66.62
18985;BME280;9626;52.552;13.436;2023-06-22T07:51:27;101380.50;;;23.94;64.26
18985;BME280;9626;52.552;13.436;2023-06-22T07:53:53;101383.47;;;24.04;62.12
18985;BME280;9626;52.552;13.436;2023-06-22T07:56:20;101387.09;;;24.18;62.67
18985;BME280;9626;52.552;13.436;2023-06-22T07:58:47;101386.03;;;24.20;59.54
18985;BME280;9626;52.552;13.436;2023-06-22T08:01:16;101387.22;;;24.02;60.18
18985;BME280;9626;52.552;13.436;2023-06-22T08:03:43;101378.97;;;23.90;61.06
18985;BME280;9626;52.552;13.436;2023-06-22T08:06:09;101378.97;;;23.90;62.77
18985;BME280;9626;52.552;13.436;2023-06-22T08:08:36;101371.97;;;24.01;62.24
18985;BME280;9626;52.552;13.436;2023-06-22T08:11:02;101379.69;;;24.07;63.28
18985;BME280;9626;52.552;13.436;2023-06-22T08:13:28;101374.50;;;24.04;61.97
18985;BME280;9626;52.552;13.436;2023-06-22T08:15:54;101373.22;;;24.09;62.81
18985;BME280;9626;52.552;13.436;2023-06-22T08:18:20;101386.03;;;24.20;61.97
18985;BME280;9626;52.552;13.436;2023-06-22T08:20:46;101382.75;;;24.15;59.74
18985;BME280;9626;52.552;13.436;2023-06-22T08:23:12;101381.88;;;24.14;60.11
18985;BME280;9626;52.552;13.436;2023-06-22T08:25:38;101383.50;;;24.17;61.32
18985;BME280;9626;52.552;13.436;2023-06-22T08:28:05;101387.66;;;24.23;60.79
18985;BME280;9626;52.552;13.436;2023-06-22T08:30:31;101390.09;;;24.13;60.67
18985;BME280;9626;52.552;13.436;2023-06-22T08:32:57;101383.16;;;24.09;60.20
18985;BME280;9626;52.552;13.436;2023-06-22T08:35:23;101382.97;;;24.12;60.03
18985;BME280;9626;52.552;13.436;2023-06-22T08:37:49;101376.28;;;24.18;60.54
18985;BME280;9626;52.552;13.436;2023-06-22T08:40:19;101385.66;;;24.12;59.81
18985;BME280;9626;52.552;13.436;2023-06-22T08:42:46;101381.22;;;24.11;61.20
18985;BME280;9626;52.552;13.436;2023-06-22T08:45:13;101375.81;;;24.11;62.22
18985;BME280;9626;52.552;13.436;2023-06-22T08:47:40;101377.13;;;24.18;63.28
18985;BME280;9626;52.552;13.436;2023-06-22T08:50:08;101378.44;;;24.25;63.23
18985;BME280;9626;52.552;13.436;2023-06-22T08:52:34;101378.56;;;24.24;62.02
18985;BME280;9626;52.552;13.436;2023-06-22T08:55:00;101379.84;;;24.18;62.08
18985;BME280;9626;52.552;13.436;2023-06-22T08:57:27;101377.13;;;24.18;62.90
18985;BME280;9626;52.552;13.436;2023-06-22T08:59:53;101383.97;;;24.24;63.52
18985;BME280;9626;52.552;13.436;2023-06-22T09:02:24;101385.25;;;24.18;64.22
18985;BME280;9626;52.552;13.436;2023-06-22T09:04:50;101377.13;;;24.18;63.62
18985;BME280;9626;52.552;13.436;2023-06-22T09:07:24;101375.38;;;24.17;64.66
18985;BME280;9626;52.552;13.436;2023-06-22T09:09:52;101371.16;;;24.13;63.31
18985;BME280;9626;52.552;13.436;2023-06-22T09:12:20;101372.63;;;24.19;62.85
18985;BME280;9626;52.552;13.436;2023-06-22T09:14:48;101367.75;;;24.24;62.24
18985;BME280;9626;52.552;13.436;2023-06-22T09:17:14;101362.94;;;24.42;62.30
18985;BME280;9626;52.552;13.436;2023-06-22T09:19:49;101360.53;;;24.64;62.45
18985;BME280;9626;52.552;13.436;2023-06-22T09:22:15;101369.53;;;24.78;61.48
18985;BME280;9626;52.552;13.436;2023-06-22T09:24:41;101367.81;;;24.77;61.36
18985;BME280;9626;52.552;13.436;2023-06-22T09:27:07;101373.00;;;24.80;59.61
18985;BME280;9626;52.552;13.436;2023-06-22T09:29:33;101373.22;;;24.77;60.89
18985;BME280;9626;52.552;13.436;2023-06-22T09:32:00;101369.31;;;24.81;56.61
18985;BME280;9626;52.552;13.436;2023-06-22T09:34:26;101366.09;;;24.89;57.34
18985;BME280;9626;52.552;13.436;2023-06-22T09:36:53;101365.97;;;24.90;58.02
18985;BME280;9626;52.552;13.436;2023-06-22T09:39:19;101353.53;;;25.01;59.13
18985;BME280;9626;52.552;13.436;2023-06-22T09:41:45;101348.97;;;25.14;59.39
18985;BME280;9626;52.552;13.436;2023-06-22T09:44:11;101351.47;;;25.17;54.43
18985;BME280;9626;52.552;13.436;2023-06-22T09:46:38;101350.38;;;25.07;55.29
18985;BME280;9626;52.552;13.436;2023-06-22T09:49:04;101340.09;;;25.12;56.33
18985;BME280;9626;52.552;13.436;2023-06-22T09:51:30;101359.47;;;25.31;55.64
18985;BME280;9626;52.552;13.436;2023-06-22T09:53:56;101352.72;;;25.63;53.24
18985;BME280;9626;52.552;13.436;2023-06-22T09:56:27;101352.19;;;25.71;53.25
18985;BME280;9626;52.552;13.436;2023-06-22T09:58:55;101344.94;;;25.58;51.46
18985;BME280;9626;52.552;13.436;2023-06-22T10:01:21;101354.69;;;25.61;51.88
18985;BME280;9626;52.552;13.436;2023-06-22T10:03:47;101360.75;;;25.64;51.34
18985;BME280;9626;52.552;13.436;2023-06-22T10:06:13;101359.53;;;25.69;50.31
18985;BME280;9626;52.552;13.436;2023-06-22T10:08:39;101357.53;;;25.59;50.83
18985;BME280;9626;52.552;13.436;2023-06-22T10:11:06;101352.31;;;25.56;53.38
18985;BME280;9626;52.552;13.436;2023-06-22T10:13:32;101357.06;;;25.65;54.75
18985;BME280;9626;52.552;13.436;2023-06-22T10:15:58;101355.66;;;25.73;53.95
18985;BME280;9626;52.552;13.436;2023-06-22T10:18:24;101354.03;;;25.94;55.08
18985;BME280;9626;52.552;13.436;2023-06-22T10:20:51;101355.66;;;25.97;54.35
18985;BME280;9626;52.552;13.436;2023-06-22T10:23:19;101349.91;;;26.02;54.33
18985;BME280;9626;52.552;13.436;2023-06-22T10:25:45;101352.34;;;25.93;54.64
18985;BME280;9626;52.552;13.436;2023-06-22T10:28:11;101347.41;;;25.98;54.97
18985;BME280;9626;52.552;13.436;2023-06-22T10:30:41;101342.09;;;25.97;53.33
18985;BME280;9626;52.552;13.436;2023-06-22T10:33:08;101347.00;;;26.05;53.33
18985;BME280;9626;52.552;13.436;2023-06-22T10:35:35;101337.56;;;25.97;52.06
18985;BME280;9626;52.552;13.436;2023-06-22T10:38:03;101339.50;;;25.95;52.83
18985;BME280;9626;52.552;13.436;2023-06-22T10:40:30;101329.75;;;26.06;52.14
18985;BME280;9626;52.552;13.436;2023-06-22T10:42:56;101329.91;;;26.15;52.09
18985;BME280;9626;52.552;13.436;2023-06-22T10:45:22;101331.81;;;26.26;51.96
18985;BME280;9626;52.552;13.436;2023-06-22T10:47:48;101326.91;;;26.31;52.67
18985;BME280;9626;52.552;13.436;2023-06-22T10:50:14;101333.75;;;26.24;52.34
18985;BME280;9626;52.552;13.436;2023-06-22T10:52:40;101322.69;;;26.27;52.47
18985;BME280;9626;52.552;13.436;2023-06-22T10:55:09;101316.38;;;26.27;51.72
18985;BME280;9626;52.552;13.436;2023-06-22T10:57:35;101320.03;;;26.14;51.34
18985;BME280;9626;52.552;13.436;2023-06-22T11:00:02;101310.88;;;26.04;51.70
18985;BME280;9626;52.552;13.436;2023-06-22T11:02:31;101308.03;;;26.06;52.24
18985;BME280;9626;52.552;13.436;2023-06-22T11:04:57;101299.72;;;25.96;52.07
18985;BME280;9626;52.552;13.436;2023-06-22T11:07:26;101307.16;;;25.81;52.59
18985;BME280;9626;52.552;13.436;2023-06-22T11:09:55;101300.50;;;25.85;53.92
18985;BME280;9626;52.552;13.436;2023-06-22T11:12:21;101299.59;;;25.97;53.14
18985;BME280;9626;52.552;13.436;2023-06-22T11:14:47;101295.72;;;26.13;53.19
18985;BME280;9626;52.552;13.436;2023-06-22T11:17:13;101303.22;;;26.34;53.29
18985;BME280;9626;52.552;13.436;2023-06-22T11:19:39;101300.78;;;26.42;50.27
18985;BME280;9626;52.552;13.436;2023-06-22T11:22:05;101305.22;;;26.43;50.07
18985;BME280;9626;52.552;13.436;2023-06-22T11:24:35;101295.59;;;26.39;49.49
18985;BME280;9626;52.552;13.436;2023-06-22T11:27:01;101293.72;;;26.39;50.67
18985;BME280;9626;52.552;13.436;2023-06-22T11:29:27;101286.06;;;26.33;51.40
18985;BME280;9626;52.552;13.436;2023-06-22T11:31:53;101290.75;;;26.31;51.14
18985;BME280;9626;52.552;13.436;2023-06-22T11:34:19;101278.81;;;26.45;50.25
18985;BME280;9626;52.552;13.436;2023-06-22T11:36:48;101269.94;;;26.54;51.23
18985;BME280;9626;52.552;13.436;2023-06-22T11:39:14;101268.34;;;26.52;50.32
18985;BME280;9626;52.552;13.436;2023-06-22T11:41:40;101277.59;;;26.49;50.71
18985;BME280;9626;52.552;13.436;2023-06-22T11:44:07;101275.28;;;26.67;50.54
18985;BME280;9626;52.552;13.436;2023-06-22T11:46:33;101275.72;;;26.74;48.91
18985;BME280;9626;52.552;13.436;2023-06-22T11:49:01;101284.06;;;26.71;49.59
18985;BME280;9626;52.552;13.436;2023-06-22T11:51:28;101279.59;;;26.58;49.66
18985;BME280;9626;52.552;13.436;2023-06-22T11:53:57;101280.09;;;26.63;49.42
18985;BME280;9626;52.552;13.436;2023-06-22T11:56:23;101278.91;;;26.79;49.32
18985;BME280;9626;52.552;13.436;2023-06-22T11:58:49;101280.84;;;26.65;48.76
18985;BME280;9626;52.552;13.436;2023-06-22T12:01:16;101286.16;;;26.67;49.94
18985;BME280;9626;52.552;13.436;2023-06-22T12:03:45;101282.84;;;26.75;50.14
18985;BME280;9626;52.552;13.436;2023-06-22T12:06:11;101284.34;;;26.79;51.10
18985;BME280;9626;52.552;13.436;2023-06-22T12:08:37;101279.16;;;26.76;51.05
18985;BME280;9626;52.552;13.436;2023-06-22T12:11:03;101277.41;;;26.75;51.10
18985;BME280;9626;52.552;13.436;2023-06-22T12:13:29;101268.69;;;26.82;50.71
18985;BME280;9626;52.552;13.436;2023-06-22T12:15:55;101266.94;;;26.81;51.33
18985;BME280;9626;52.552;13.436;2023-06-22T12:18:21;101261.50;;;26.81;49.83
18985;BME280;9626;52.552;13.436;2023-06-22T12:20:48;101259.16;;;26.77;49.87
18985;BME280;9626;52.552;13.436;2023-06-22T12:23:14;101258.06;;;26.79;50.46
18985;BME280;9626;52.552;13.436;2023-06-22T12:25:40;101257.69;;;26.84;49.91
18985;BME280;9626;52.552;13.436;2023-06-22T12:28:06;101254.97;;;26.95;49.87
18985;BME280;9626;52.552;13.436;2023-06-22T12:30:39;101242.25;;;27.07;48.51
18985;BME280;9626;52.552;13.436;2023-06-22T12:33:05;101230.25;;;27.21;47.62
18985;BME280;9626;52.552;13.436;2023-06-22T12:35:31;101227.06;;;27.16;48.31
18985;BME280;9626;52.552;13.436;2023-06-22T12:37:58;101225.56;;;27.23;49.33
18985;BME280;9626;52.552;13.436;2023-06-22T12:40:24;101225.06;;;27.18;49.00
18985;BME280;9626;52.552;13.436;2023-06-22T12:42:50;101224.81;;;27.21;48.25
18985;BME280;9626;52.552;13.436;2023-06-22T12:45:16;101233.09;;;27.20;48.77
18985;BME280;9626;52.552;13.436;2023-06-22T12:47:42;101219.38;;;27.21;48.50
18985;BME280;9626;52.552;13.436;2023-06-22T12:50:09;101222.72;;;27.25;48.64
18985;BME280;9626;52.552;13.436;2023-06-22T12:52:36;101217.91;;;27.40;48.54
18985;BME280;9626;52.552;13.436;2023-06-22T12:55:05;101206.50;;;27.46;48.51